Time;durP1;ratioP1;P1;durP2;ratioP2;P2;SDS_P1;SDS_P2;PMS_P1;PMS_P2;Temp;Humidity;BMP_temperature;BMP_pressure;BME280_temperature;BME280_humidity;BME280_pressure;Samples;Min_cycle;Max_cycle;Signal;HPM_P1;HPM_P2
2023/10/12 00:02:27;;;;;;;3.45;2.55;;;;;;;;;;5057741;28;20043;-59
2023/10/12 00:05:00;;;;;;;2.35;2.17;;;;;;;;;;5055368;28;20535;-59
2023/10/12 00:07:38;;;;;;;2.70;2.50;;;;;;;;;;5057997;28;20041;-60
2023/10/12 00:10:21;;;;;;;3.80;2.97;;;;;;;;;;5055752;28;20048;-61
2023/10/12 00:12:53;;;;;;;2.53;2.25;;;;;;;;;;5061136;28;20063;-60
2023/10/12 00:15:28;;;;;;;2.95;2.75;;;;;;;;;;5056584;28;20052;-59
2023/10/12 00:17:59;;;;;;;3.38;2.30;;;;;;;;;;5056523;28;20433;-61
2023/10/12 00:20:35;;;;;;;3.42;2.00;;;;;;;;;;5055526;28;20063;-59
2023/10/12 00:23:09;;;;;;;2.17;2.08;;;;;;;;;;5057078;28;20139;-59
2023/10/12 00:25:45;;;;;;;2.88;2.60;;;;;;;;;;5058456;28;20136;-60
2023/10/12 00:28:17;;;;;;;2.70;2.50;;;;;;;;;;5058729;28;20101;-61
2023/10/12 00:30:46;;;;;;;2.55;2.35;;;;;;;;;;5059031;28;20383;-61
2023/10/12 00:33:17;;;;;;;2.58;2.38;;;;;;;;;;5060487;28;20051;-61
2023/10/12 00:35:50;;;;;;;4.57;2.95;;;;;;;;;;5058190;28;20055;-59
2023/10/12 00:38:23;;;;;;;3.20;2.90;;;;;;;;;;5059698;28;20351;-62
2023/10/12 00:40:57;;;;;;;3.25;2.95;;;;;;;;;;5054923;28;20048;-59
2023/10/12 00:43:31;;;;;;;4.05;3.35;;;;;;;;;;5060236;28;20128;-58
2023/10/12 00:46:01;;;;;;;3.80;3.60;;;;;;;;;;5057224;28;20051;-59
2023/10/12 00:48:31;;;;;;;3.88;3.67;;;;;;;;;;5059177;28;20055;-60
2023/10/12 00:51:00;;;;;;;4.18;3.95;;;;;;;;;;5055811;28;20037;-63
2023/10/12 00:53:32;;;;;;;3.50;3.30;;;;;;;;;;5059105;28;20080;-60
2023/10/12 00:56:02;;;;;;;3.60;3.40;;;;;;;;;;5056797;28;20045;-59
2023/10/12 00:58:31;;;;;;;3.33;3.13;;;;;;;;;;5058522;28;20070;-59
2023/10/12 01:01:04;;;;;;;2.88;2.67;;;;;;;;;;5057374;28;20554;-59
2023/10/12 01:03:35;;;;;;;2.88;2.67;;;;;;;;;;5058008;28;20056;-60
2023/10/12 01:06:20;;;;;;;2.50;2.40;;;;;;;;;;5055327;28;20394;-59
2023/10/12 01:08:49;;;;;;;;;;;;;;;;;;5059409;28;20060;-59
2023/10/12 01:11:20;;;;;;;4.43;2.55;;;;;;;;;;5055959;28;20556;-62
2023/10/12 01:13:55;;;;;;;2.60;2.40;;;;;;;;;;5058372;28;20044;-59
2023/10/12 01:16:24;;;;;;;3.05;2.75;;;;;;;;;;5055351;28;20373;-59
2023/10/12 01:19:02;;;;;;;2.33;2.13;;;;;;;;;;5061492;28;20129;-59
2023/10/12 01:21:36;;;;;;;2.55;2.35;;;;;;;;;;5060128;28;20048;-59
2023/10/12 01:24:11;;;;;;;2.53;2.33;;;;;;;;;;5058813;28;20430;-59
2023/10/12 01:26:43;;;;;;;2.80;2.60;;;;;;;;;;5057536;28;21040;-59
2023/10/12 01:29:19;;;;;;;2.55;2.35;;;;;;;;;;5060989;28;20082;-59
2023/10/12 01:31:51;;;;;;;2.90;2.70;;;;;;;;;;5061907;28;20408;-59
2023/10/12 01:34:24;;;;;;;2.83;2.33;;;;;;;;;;5059128;28;20128;-59
2023/10/12 01:36:55;;;;;;;3.25;2.38;;;;;;;;;;5058001;28;20048;-59
2023/10/12 01:39:28;;;;;;;2.47;2.28;;;;;;;;;;5063447;28;20404;-62
2023/10/12 01:41:57;;;;;;;2.65;2.42;;;;;;;;;;5057943;28;20060;-60
2023/10/12 01:44:27;;;;;;;2.67;2.45;;;;;;;;;;5064589;28;20494;-58
2023/10/12 01:46:56;;;;;;;2.47;2.30;;;;;;;;;;5057076;28;20519;-61
2023/10/12 01:49:25;;;;;;;3.00;2.80;;;;;;;;;;5063488;28;20048;-60
2023/10/12 01:51:57;;;;;;;3.17;2.42;;;;;;;;;;5060770;28;20129;-57
2023/10/12 01:54:28;;;;;;;2.88;2.63;;;;;;;;;;5065472;28;20083;-58
2023/10/12 01:56:56;;;;;;;2.70;2.50;;;;;;;;;;5059717;28;20055;-57
2023/10/12 01:59:25;;;;;;;4.57;2.72;;;;;;;;;;5062878;28;20049;-58
2023/10/12 02:02:05;;;;;;;2.72;2.35;;;;;;;;;;5061288;28;20075;-57
2023/10/12 02:04:39;;;;;;;4.53;2.47;;;;;;;;;;5061367;28;20040;-57
2023/10/12 02:07:10;;;;;;;2.42;2.22;;;;;;;;;;5058429;28;20109;-58
2023/10/12 02:09:41;;;;;;;3.03;2.20;;;;;;;;;;5060791;28;20049;-58
2023/10/12 02:12:13;;;;;;;2.22;2.13;;;;;;;;;;5056722;28;20134;-57
2023/10/12 02:14:42;;;;;;;2.63;2.42;;;;;;;;;;5061324;28;20547;-57
2023/10/12 02:17:11;;;;;;;2.28;2.15;;;;;;;;;;5060244;28;20307;-57
2023/10/12 02:19:41;;;;;;;2.90;2.70;;;;;;;;;;5062768;28;20048;-57
2023/10/12 02:22:19;;;;;;;3.55;2.22;;;;;;;;;;5059482;28;20508;-58
2023/10/12 02:24:57;;;;;;;2.60;2.40;;;;;;;;;;5062071;28;20137;-58
2023/10/12 02:27:27;;;;;;;3.00;2.70;;;;;;;;;;5056463;28;20394;-57
2023/10/12 02:29:56;;;;;;;2.50;2.30;;;;;;;;;;5061877;28;20044;-57
2023/10/12 02:32:25;;;;;;;2.65;2.53;;;;;;;;;;5060099;28;20070;-57
2023/10/12 02:34:57;;;;;;;2.42;2.20;;;;;;;;;;5058315;28;20605;-57
2023/10/12 02:37:27;;;;;;;3.05;2.33;;;;;;;;;;5054431;28;20478;-60
2023/10/12 02:39:57;;;;;;;2.70;2.55;;;;;;;;;;5063291;28;20048;-58
2023/10/12 02:42:40;;;;;;;3.53;2.60;;;;;;;;;;5057493;28;20045;-57
2023/10/12 02:45:17;;;;;;;2.67;2.47;;;;;;;;;;5039857;28;20123;-61
2023/10/12 02:47:47;;;;;;;3.13;2.92;;;;;;;;;;5056828;28;20040;-59
2023/10/12 02:50:21;;;;;;;3.35;2.20;;;;;;;;;;5060937;28;20497;-57
2023/10/12 02:52:52;;;;;;;2.80;2.60;;;;;;;;;;5058495;28;20398;-58
2023/10/12 02:55:40;;;;;;;2.90;2.70;;;;;;;;;;5061847;28;20049;-58
2023/10/12 02:58:18;;;;;;;3.28;2.83;;;;;;;;;;5059912;28;21368;-57
2023/10/12 03:00:54;;;;;;;2.58;2.38;;;;;;;;;;5058251;28;20136;-61
2023/10/12 03:03:25;;;;;;;3.03;2.75;;;;;;;;;;5058078;28;20052;-58
2023/10/12 03:05:58;;;;;;;3.80;2.67;;;;;;;;;;5059721;28;20458;-57
2023/10/12 03:08:33;;;;;;;2.78;2.58;;;;;;;;;;5056323;28;20099;-61
2023/10/12 03:11:12;;;;;;;2.63;2.40;;;;;;;;;;5061518;28;20045;-58
2023/10/12 03:13:54;;;;;;;4.43;2.60;;;;;;;;;;5054307;28;20051;-58
2023/10/12 03:16:23;;;;;;;2.33;2.22;;;;;;;;;;5059770;28;20486;-58
2023/10/12 03:18:57;;;;;;;2.88;2.67;;;;;;;;;;5055984;28;20075;-58
2023/10/12 03:21:33;;;;;;;3.58;2.63;;;;;;;;;;5058377;28;20052;-58
2023/10/12 03:24:03;;;;;;;;;;;;;;;;;;5058594;28;20135;-58
2023/10/12 03:26:34;;;;;;;2.92;2.70;;;;;;;;;;5056851;28;19936;-57
2023/10/12 03:29:18;;;;;;;2.90;2.53;;;;;;;;;;5057260;28;20051;-58
2023/10/12 03:31:57;;;;;;;3.95;3.03;;;;;;;;;;5059146;28;20037;-60
2023/10/12 03:34:46;;;;;;;5.03;2.78;;;;;;;;;;5061020;28;20071;-61
2023/10/12 03:37:14;;;;;;;2.67;2.47;;;;;;;;;;5056508;28;20044;-61
2023/10/12 03:39:58;;;;;;;2.40;2.30;;;;;;;;;;5060352;28;20048;-58
2023/10/12 03:42:42;;;;;;;2.28;2.17;;;;;;;;;;5058189;28;20576;-58
2023/10/12 03:45:24;;;;;;;2.80;2.50;;;;;;;;;;5026431;28;20087;-58
2023/10/12 03:48:04;;;;;;;2.80;2.50;;;;;;;;;;5056242;28;20344;-58
2023/10/12 03:50:51;;;;;;;2.50;2.30;;;;;;;;;;5057986;28;20049;-58
2023/10/12 03:53:26;;;;;;;2.78;2.38;;;;;;;;;;5060938;28;20049;-58
2023/10/12 03:55:58;;;;;;;5.68;2.40;;;;;;;;;;5056794;28;21168;-58
2023/10/12 03:58:28;;;;;;;2.40;2.20;;;;;;;;;;5058498;28;20056;-59
2023/10/12 04:01:12;;;;;;;2.45;2.25;;;;;;;;;;5054862;28;20044;-57
2023/10/12 04:03:44;;;;;;;3.72;2.58;;;;;;;;;;5059780;28;20052;-64
2023/10/12 04:06:15;;;;;;;3.50;2.28;;;;;;;;;;5061274;28;20440;-58
2023/10/12 04:08:51;;;;;;;2.53;2.33;;;;;;;;;;5057102;28;20076;-60
2023/10/12 04:14:43;;;;;;;2.42;2.22;;;;;;;;;;5056394;28;20056;-59
2023/10/12 04:17:22;;;;;;;3.00;2.38;;;;;;;;;;5058191;28;20045;-58
2023/10/12 04:20:13;;;;;;;8.38;2.20;;;;;;;;;;5061654;28;20127;-58
2023/10/12 04:25:34;;;;;;;2.95;2.65;;;;;;;;;;5058062;28;20055;-58
2023/10/12 04:28:17;;;;;;;2.75;2.40;;;;;;;;;;5058833;28;20696;-59
2023/10/12 04:33:43;;;;;;;3.28;2.30;;;;;;;;;;5028570;28;20464;-58
2023/10/12 04:36:23;;;;;;;3.97;2.10;;;;;;;;;;5058110;28;20147;-60
2023/10/12 04:39:03;;;;;;;2.13;1.92;;;;;;;;;;5059282;28;20098;-58
2023/10/12 04:41:42;;;;;;;4.30;3.00;;;;;;;;;;5051752;28;20076;-59
2023/10/12 04:46:59;;;;;;;2.88;2.55;;;;;;;;;;5053798;28;20071;-58
2023/10/12 04:52:17;;;;;;;2.65;2.40;;;;;;;;;;5057447;28;20044;-58
2023/10/12 04:57:50;;;;;;;4.05;2.80;;;;;;;;;;4993038;28;20458;-58
2023/10/12 05:00:24;;;;;;;3.80;2.45;;;;;;;;;;5043502;28;20335;-58
2023/10/12 05:03:22;;;;;;;5.63;2.72;;;;;;;;;;5052729;28;20048;-61
2023/10/12 05:06:04;;;;;;;3.00;2.50;;;;;;;;;;5052927;28;20047;-57
2023/10/12 05:08:33;;;;;;;5.18;2.85;;;;;;;;;;5056328;28;20048;-60
2023/10/12 05:11:02;;;;;;;2.50;2.30;;;;;;;;;;5058369;28;20040;-58
2023/10/12 05:13:31;;;;;;;2.85;2.30;;;;;;;;;;5053308;28;20118;-58
2023/10/12 05:16:05;;;;;;;6.32;2.55;;;;;;;;;;5058323;28;20123;-58
2023/10/12 05:18:35;;;;;;;2.40;2.30;;;;;;;;;;5059960;28;20044;-59
2023/10/12 05:21:08;;;;;;;4.10;2.60;;;;;;;;;;5054395;28;20076;-62
2023/10/12 05:23:38;;;;;;;2.55;2.35;;;;;;;;;;5049203;28;20133;-59
2023/10/12 05:26:10;;;;;;;2.67;2.47;;;;;;;;;;5045698;28;20060;-59
2023/10/12 05:28:47;;;;;;;2.60;2.38;;;;;;;;;;5055797;28;20220;-59
2023/10/12 05:31:20;;;;;;;2.95;2.55;;;;;;;;;;5058855;28;20051;-58
2023/10/12 05:36:51;;;;;;;2.65;2.45;;;;;;;;;;4995319;28;20658;-58
2023/10/12 05:39:22;;;;;;;2.67;2.45;;;;;;;;;;4992459;28;20248;-58
2023/10/12 05:41:53;;;;;;;5.05;2.55;;;;;;;;;;5024907;28;20040;-58
2023/10/12 05:44:26;;;;;;;3.63;2.90;;;;;;;;;;5060523;28;20094;-61
2023/10/12 05:47:00;;;;;;;5.18;3.05;;;;;;;;;;5060698;28;20733;-58
2023/10/12 05:49:33;;;;;;;11.27;2.80;;;;;;;;;;5055675;28;20488;-60
2023/10/12 05:52:05;;;;;;;3.17;2.72;;;;;;;;;;5055742;28;20072;-59
2023/10/12 05:54:35;;;;;;;5.10;2.83;;;;;;;;;;5057372;28;20498;-59
2023/10/12 05:57:09;;;;;;;3.33;2.85;;;;;;;;;;5057743;28;20114;-58
2023/10/12 05:59:38;;;;;;;4.50;3.53;;;;;;;;;;5054704;28;20150;-58
2023/10/12 06:02:09;;;;;;;3.55;3.25;;;;;;;;;;5053882;28;20294;-58
2023/10/12 06:04:39;;;;;;;3.40;3.10;;;;;;;;;;5056303;28;20070;-58
2023/10/12 06:07:08;;;;;;;3.60;3.00;;;;;;;;;;5059326;28;20044;-61
2023/10/12 06:09:37;;;;;;;3.03;2.72;;;;;;;;;;5060490;28;20147;-60
2023/10/12 06:12:07;;;;;;;3.08;2.80;;;;;;;;;;5064141;28;20409;-59
2023/10/12 06:14:37;;;;;;;3.05;2.80;;;;;;;;;;5056758;28;20697;-59
2023/10/12 06:17:06;;;;;;;4.57;3.15;;;;;;;;;;5059409;28;20125;-58
2023/10/12 06:19:36;;;;;;;4.45;3.20;;;;;;;;;;5060610;28;20127;-58
2023/10/12 06:22:19;;;;;;;5.35;3.65;;;;;;;;;;5061509;28;20076;-58
2023/10/12 06:24:52;;;;;;;5.03;3.17;;;;;;;;;;5057583;28;20060;-58
2023/10/12 06:27:24;;;;;;;3.35;3.10;;;;;;;;;;5060431;28;20048;-59
2023/10/12 06:29:54;;;;;;;5.20;3.45;;;;;;;;;;5064152;28;20151;-59
2023/10/12 06:32:31;;;;;;;6.43;3.90;;;;;;;;;;5061276;28;20074;-59
2023/10/12 06:35:13;;;;;;;4.25;3.60;;;;;;;;;;5057396;28;20053;-61
2023/10/12 06:40:47;;;;;;;7.47;3.40;;;;;;;;;;5060542;28;21137;-59
2023/10/12 06:46:04;;;;;;;3.42;3.15;;;;;;;;;;5057119;28;20097;-59
2023/10/12 06:48:46;;;;;;;3.20;2.90;;;;;;;;;;5061596;28;20040;-59
2023/10/12 06:51:14;;;;;;;3.50;3.10;;;;;;;;;;5058322;28;20525;-58
2023/10/12 06:53:51;;;;;;;6.63;3.10;;;;;;;;;;5058854;28;20638;-58
2023/10/12 06:56:26;;;;;;;11.15;3.55;;;;;;;;;;5062072;28;20501;-57
2023/10/12 06:59:13;;;;;;;5.03;3.20;;;;;;;;;;5061296;28;20064;-58
2023/10/12 07:04:36;;;;;;;4.50;3.17;;;;;;;;;;5059150;28;20076;-61
2023/10/12 07:07:07;;;;;;;5.38;2.95;;;;;;;;;;5057718;28;20102;-59
2023/10/12 07:09:42;;;;;;;2.95;2.70;;;;;;;;;;5055473;28;20054;-59
2023/10/12 07:12:12;;;;;;;3.17;2.95;;;;;;;;;;5054315;28;20052;-59
2023/10/12 07:14:46;;;;;;;3.42;2.85;;;;;;;;;;5053326;28;20060;-58
2023/10/12 07:17:16;;;;;;;3.28;2.70;;;;;;;;;;5062307;28;20058;-58
2023/10/12 07:19:49;;;;;;;2.70;2.55;;;;;;;;;;5063579;28;20051;-58
2023/10/12 07:22:18;;;;;;;5.28;2.85;;;;;;;;;;5056881;28;20049;-60
2023/10/12 07:24:53;;;;;;;3.42;2.83;;;;;;;;;;5058996;28;20044;-61
2023/10/12 07:27:22;;;;;;;8.93;2.60;;;;;;;;;;5056394;28;20049;-58
2023/10/12 07:30:08;;;;;;;4.43;3.33;;;;;;;;;;5062344;28;20048;-61
2023/10/12 07:32:47;;;;;;;3.83;2.40;;;;;;;;;;5058533;28;20045;-56
2023/10/12 07:35:19;;;;;;;4.10;2.75;;;;;;;;;;5062356;28;20040;-58
2023/10/12 07:37:50;;;;;;;3.00;2.58;;;;;;;;;;5059272;28;20045;-58
2023/10/12 07:40:23;;;;;;;6.57;2.60;;;;;;;;;;5063239;28;20450;-57
2023/10/12 07:42:51;;;;;;;5.18;2.72;;;;;;;;;;5059814;28;20680;-58
2023/10/12 07:45:27;;;;;;;3.80;2.60;;;;;;;;;;5060841;28;20049;-61
2023/10/12 07:47:59;;;;;;;2.85;2.22;;;;;;;;;;5061716;28;20591;-58
2023/10/12 07:50:36;;;;;;;2.33;2.13;;;;;;;;;;5056261;28;20287;-57
2023/10/12 07:53:21;;;;;;;4.75;2.78;;;;;;;;;;5060752;28;20067;-58
2023/10/12 07:56:00;;;;;;;2.60;2.17;;;;;;;;;;5054019;28;20156;-59
2023/10/12 07:58:31;;;;;;;4.95;2.20;;;;;;;;;;5054273;28;20171;-58
2023/10/12 08:01:20;;;;;;;2.30;2.10;;;;;;;;;;5061034;28;20063;-58
2023/10/12 08:03:52;;;;;;;4.00;2.15;;;;;;;;;;5054118;28;20051;-58
2023/10/12 08:06:28;;;;;;;2.45;2.25;;;;;;;;;;5061185;28;20048;-61
2023/10/12 08:09:03;;;;;;;2.90;2.03;;;;;;;;;;5054507;28;20114;-58
2023/10/12 08:11:34;;;;;;;;;;;;;;;;;;5061438;28;20044;-58
2023/10/12 08:14:19;;;;;;;2.30;2.10;;;;;;;;;;5051880;28;20012;-59
2023/10/12 08:17:24;;;;;;;3.72;2.10;;;;;;;;;;5058945;28;20516;-59
2023/10/12 08:19:39;;;;;;;2.90;2.20;;;;;;;;;;5052742;28;20076;-58
2023/10/12 08:22:17;;;;;;;2.97;2.70;;;;;;;;;;5059891;28;20554;-61
2023/10/12 08:24:46;;;;;;;6.88;2.90;;;;;;;;;;5057949;28;20048;-58
2023/10/12 08:27:18;;;;;;;3.10;2.90;;;;;;;;;;5056449;28;20464;-58
2023/10/12 08:30:13;;;;;;;2.47;2.28;;;;;;;;;;5061736;28;20056;-58
2023/10/12 08:32:55;;;;;;;2.53;2.33;;;;;;;;;;5058936;28;20478;-59
2023/10/12 08:35:35;;;;;;;2.45;2.13;;;;;;;;;;5058126;28;20052;-60
2023/10/12 08:38:15;;;;;;;2.95;2.22;;;;;;;;;;5058022;28;20048;-59
2023/10/12 08:41:18;;;;;;;3.17;2.05;;;;;;;;;;5059457;28;20092;-59
2023/10/12 08:43:45;;;;;;;2.67;2.08;;;;;;;;;;5053393;28;20048;-61
2023/10/12 08:46:48;;;;;;;2.33;1.98;;;;;;;;;;5055211;28;20048;-59
2023/10/12 08:54:37;;;;;;;1.80;1.70;;;;;;;;;;5056794;28;20048;-58
2023/10/12 08:57:11;;;;;;;2.28;1.90;;;;;;;;;;5052840;28;20036;-59
2023/10/12 08:59:42;;;;;;;3.78;2.00;;;;;;;;;;5053456;28;20040;-59
2023/10/12 09:02:20;;;;;;;2.88;1.95;;;;;;;;;;5057170;28;20044;-59
2023/10/12 09:04:50;;;;;;;2.65;1.88;;;;;;;;;;5055430;28;20486;-58
2023/10/12 09:07:21;;;;;;;2.10;1.90;;;;;;;;;;5055723;28;20516;-59
2023/10/12 09:09:55;;;;;;;2.28;2.08;;;;;;;;;;5058144;28;20036;-59
2023/10/12 09:12:24;;;;;;;6.88;2.70;;;;;;;;;;5059123;28;20080;-60
2023/10/12 09:14:55;;;;;;;1.80;1.70;;;;;;;;;;5059577;28;20041;-60
2023/10/12 09:17:30;;;;;;;4.88;2.00;;;;;;;;;;5060352;28;20119;-58
2023/10/12 09:23:10;;;;;;;3.75;2.20;;;;;;;;;;5008383;28;20128;-59
2023/10/12 09:28:42;;;;;;;2.53;2.08;;;;;;;;;;5056825;28;20064;-64
2023/10/12 09:31:14;;;;;;;4.38;2.35;;;;;;;;;;5057797;28;20520;-59
2023/10/12 09:33:53;;;;;;;2.22;2.03;;;;;;;;;;5056919;28;20048;-59
2023/10/12 09:36:22;;;;;;;2.40;2.20;;;;;;;;;;5060774;28;20448;-59
2023/10/12 09:38:55;;;;;;;2.30;1.83;;;;;;;;;;5056816;28;20040;-59
2023/10/12 09:41:26;;;;;;;2.95;2.05;;;;;;;;;;5064572;28;20056;-61
2023/10/12 09:43:57;;;;;;;1.83;1.60;;;;;;;;;;5057242;28;20056;-59
2023/10/12 09:46:27;;;;;;;2.53;1.67;;;;;;;;;;5062269;28;20490;-59
2023/10/12 09:49:02;;;;;;;2.42;2.03;;;;;;;;;;5062737;28;20106;-60
2023/10/12 09:51:36;;;;;;;4.93;2.65;;;;;;;;;;5064439;28;20064;-59
2023/10/12 09:54:15;;;;;;;4.45;2.65;;;;;;;;;;5056534;28;20064;-57
2023/10/12 09:56:47;;;;;;;2.97;2.70;;;;;;;;;;5062120;28;20087;-57
2023/10/12 09:59:18;;;;;;;2.58;2.38;;;;;;;;;;5059039;28;20568;-58
2023/10/12 10:01:50;;;;;;;2.38;2.17;;;;;;;;;;5065573;28;20068;-61
2023/10/12 10:04:29;;;;;;;2.42;2.10;;;;;;;;;;5058657;28;20053;-60
2023/10/12 10:07:15;;;;;;;5.90;2.60;;;;;;;;;;5064384;28;20052;-60
2023/10/12 10:09:47;;;;;;;2.85;2.47;;;;;;;;;;5061559;28;20044;-60
2023/10/12 10:12:17;;;;;;;2.60;2.10;;;;;;;;;;5063677;28;20045;-59
2023/10/12 10:14:52;;;;;;;2.60;2.15;;;;;;;;;;5060353;28;20055;-60
2023/10/12 10:17:24;;;;;;;3.58;1.90;;;;;;;;;;5061717;28;20056;-60
2023/10/12 10:20:34;;;;;;;2.17;1.80;;;;;;;;;;5060959;28;20347;-58
2023/10/12 10:23:03;;;;;;;2.78;2.00;;;;;;;;;;5061151;28;20064;-58
2023/10/12 10:25:43;;;;;;;2.42;2.10;;;;;;;;;;5061832;28;20106;-62
2023/10/12 10:28:18;;;;;;;4.13;2.28;;;;;;;;;;5061494;28;20131;-60
2023/10/12 10:30:49;;;;;;;1.70;1.60;;;;;;;;;;5059499;28;20052;-61
2023/10/12 10:33:22;;;;;;;2.00;1.80;;;;;;;;;;5060605;28;20452;-60
2023/10/12 10:35:59;;;;;;;1.50;1.40;;;;;;;;;;5059844;28;20360;-59
2023/10/12 10:38:32;;;;;;;3.65;1.75;;;;;;;;;;5057825;28;20064;-60
2023/10/12 10:41:07;;;;;;;2.45;1.83;;;;;;;;;;5064156;28;20040;-60
2023/10/12 10:43:38;;;;;;;3.92;2.05;;;;;;;;;;5056018;28;20497;-62
2023/10/12 10:46:09;;;;;;;2.60;1.73;;;;;;;;;;5062379;28;20481;-62
2023/10/12 10:48:40;;;;;;;2.63;2.42;;;;;;;;;;5057723;28;20392;-63
2023/10/12 10:51:18;;;;;;;2.53;2.33;;;;;;;;;;5061452;28;20053;-60
2023/10/12 10:53:52;;;;;;;3.00;2.80;;;;;;;;;;5057574;28;20048;-61
2023/10/12 10:56:34;;;;;;;3.83;3.00;;;;;;;;;;5061733;28;20044;-60
2023/10/12 10:59:05;;;;;;;3.20;2.65;;;;;;;;;;5059787;28;20551;-59
2023/10/12 11:01:33;;;;;;;3.67;2.35;;;;;;;;;;5062064;28;20448;-58
2023/10/12 11:04:08;;;;;;;1.80;1.70;;;;;;;;;;5059637;28;20497;-58
2023/10/12 11:06:39;;;;;;;3.13;2.25;;;;;;;;;;5061764;28;20127;-59
2023/10/12 11:09:09;;;;;;;5.07;1.83;;;;;;;;;;5059191;28;20652;-60
2023/10/12 11:11:37;;;;;;;4.03;2.40;;;;;;;;;;5062869;28;20049;-59
2023/10/12 11:14:08;;;;;;;2.15;1.98;;;;;;;;;;5057128;28;20045;-59
2023/10/12 11:16:37;;;;;;;3.47;1.90;;;;;;;;;;5061024;28;20049;-63
2023/10/12 11:19:09;;;;;;;2.35;1.90;;;;;;;;;;5056378;28;20044;-62
2023/10/12 11:21:45;;;;;;;2.00;1.90;;;;;;;;;;5062716;28;20053;-59
2023/10/12 11:24:14;;;;;;;3.60;1.98;;;;;;;;;;5053072;28;20467;-61
2023/10/12 11:27:01;;;;;;;2.78;2.13;;;;;;;;;;5060137;28;20063;-59
2023/10/12 11:29:32;;;;;;;2.55;2.08;;;;;;;;;;5058830;28;20056;-58
2023/10/12 11:32:11;;;;;;;2.25;2.05;;;;;;;;;;5062466;28;20052;-59
2023/10/12 11:34:45;;;;;;;2.08;1.83;;;;;;;;;;5058949;28;20048;-62
2023/10/12 11:37:15;;;;;;;1.63;1.52;;;;;;;;;;5061279;28;20044;-64
2023/10/12 11:39:44;;;;;;;1.85;1.60;;;;;;;;;;5059196;28;21416;-60
2023/10/12 11:42:13;;;;;;;2.72;1.90;;;;;;;;;;5058435;28;20048;-59
2023/10/12 11:44:45;;;;;;;2.17;1.98;;;;;;;;;;5060545;28;20036;-60
2023/10/12 11:47:37;;;;;;;1.95;1.75;;;;;;;;;;5055654;28;20493;-60
2023/10/12 11:50:09;;;;;;;3.55;1.85;;;;;;;;;;5060943;28;20157;-61
2023/10/12 11:52:40;;;;;;;5.18;2.10;;;;;;;;;;5057385;28;20037;-60
2023/10/12 11:55:19;;;;;;;3.35;1.90;;;;;;;;;;5055766;28;20044;-61
2023/10/12 11:57:54;;;;;;;4.45;1.80;;;;;;;;;;5058467;28;20037;-59
2023/10/12 12:00:26;;;;;;;1.98;1.80;;;;;;;;;;5057809;28;20113;-60
2023/10/12 12:02:59;;;;;;;2.08;1.85;;;;;;;;;;5059313;28;20530;-60
2023/10/12 12:05:30;;;;;;;2.03;1.92;;;;;;;;;;5056740;28;20049;-59
2023/10/12 12:08:06;;;;;;;3.30;2.10;;;;;;;;;;5057294;28;20053;-61
2023/10/12 12:10:44;;;;;;;2.88;1.75;;;;;;;;;;5060237;28;20143;-61
2023/10/12 12:13:15;;;;;;;2.35;1.60;;;;;;;;;;5059579;28;20048;-59
2023/10/12 12:15:44;;;;;;;5.22;2.10;;;;;;;;;;5056766;28;20127;-61
2023/10/12 12:18:18;;;;;;;2.40;2.00;;;;;;;;;;5057366;28;20118;-64
2023/10/12 12:20:48;;;;;;;2.97;2.33;;;;;;;;;;5059118;28;20048;-60
2023/10/12 12:23:18;;;;;;;4.68;2.38;;;;;;;;;;5059248;28;20057;-60
2023/10/12 12:25:46;;;;;;;4.28;2.22;;;;;;;;;;5060568;28;20140;-62
2023/10/12 12:28:15;;;;;;;2.33;2.13;;;;;;;;;;5061669;28;20131;-60
2023/10/12 12:30:51;;;;;;;4.88;2.00;;;;;;;;;;5058445;28;20049;-60
2023/10/12 12:33:27;;;;;;;2.60;2.40;;;;;;;;;;5054538;28;20052;-60
2023/10/12 12:35:59;;;;;;;6.50;2.05;;;;;;;;;;5058552;28;20044;-60
2023/10/12 12:38:44;;;;;;;2.28;1.80;;;;;;;;;;5061201;28;20503;-61
2023/10/12 12:41:19;;;;;;;1.80;1.70;;;;;;;;;;5056409;28;20110;-62
2023/10/12 12:43:48;;;;;;;2.53;1.80;;;;;;;;;;5058827;28;20136;-61
2023/10/12 12:46:17;;;;;;;2.10;1.90;;;;;;;;;;5055312;28;20553;-60
2023/10/12 12:48:46;;;;;;;1.60;1.50;;;;;;;;;;5059356;28;20052;-62
2023/10/12 12:51:15;;;;;;;2.65;2.17;;;;;;;;;;5059532;28;20434;-60
2023/10/12 12:53:47;;;;;;;2.70;1.65;;;;;;;;;;5059560;28;20129;-61
2023/10/12 12:56:16;;;;;;;2.85;2.00;;;;;;;;;;5046304;28;20045;-62
2023/10/12 12:58:46;;;;;;;3.85;2.90;;;;;;;;;;5053703;28;20041;-60
2023/10/12 13:01:16;;;;;;;2.92;2.10;;;;;;;;;;5061621;28;20063;-63
2023/10/12 13:03:45;;;;;;;2.90;2.40;;;;;;;;;;5055015;28;20770;-61
2023/10/12 13:06:15;;;;;;;4.53;2.17;;;;;;;;;;5058806;28;20544;-61
2023/10/12 13:08:43;;;;;;;2.63;1.98;;;;;;;;;;5059500;28;20064;-60
2023/10/12 13:11:18;;;;;;;4.35;2.08;;;;;;;;;;5056255;28;20488;-60
2023/10/12 13:13:47;;;;;;;3.72;2.67;;;;;;;;;;5059144;28;20142;-61
2023/10/12 13:16:16;;;;;;;2.65;2.05;;;;;;;;;;5057467;28;20045;-61
2023/10/12 13:18:47;;;;;;;2.88;2.17;;;;;;;;;;5061278;28;20123;-59
2023/10/12 13:21:16;;;;;;;2.85;2.17;;;;;;;;;;5065345;28;20054;-60
2023/10/12 13:23:45;;;;;;;3.97;2.33;;;;;;;;;;5063626;28;20052;-60
2023/10/12 13:26:17;;;;;;;5.00;1.80;;;;;;;;;;5058055;28;20041;-59
2023/10/12 13:28:46;;;;;;;2.30;2.10;;;;;;;;;;5060333;28;20052;-61
2023/10/12 13:31:16;;;;;;;2.33;2.13;;;;;;;;;;5063155;28;20048;-60
2023/10/12 13:33:44;;;;;;;3.45;2.30;;;;;;;;;;5064041;28;20059;-62
2023/10/12 13:36:13;;;;;;;2.00;1.90;;;;;;;;;;5064191;28;20080;-59
2023/10/12 13:38:41;;;;;;;3.05;1.92;;;;;;;;;;5058848;28;20075;-60
2023/10/12 13:41:11;;;;;;;2.10;2.00;;;;;;;;;;5057547;28;20511;-61
2023/10/12 13:43:45;;;;;;;2.15;2.05;;;;;;;;;;5065219;28;20123;-60
2023/10/12 13:46:15;;;;;;;4.85;1.95;;;;;;;;;;5060332;28;20048;-63
2023/10/12 13:48:47;;;;;;;2.20;2.05;;;;;;;;;;5062629;28;20049;-60
2023/10/12 13:51:19;;;;;;;2.25;2.03;;;;;;;;;;5058799;28;20314;-59
2023/10/12 13:53:50;;;;;;;2.35;2.10;;;;;;;;;;5059033;28;20048;-59
2023/10/12 13:56:23;;;;;;;2.38;1.88;;;;;;;;;;5056738;28;20048;-60
2023/10/12 13:58:58;;;;;;;3.58;2.22;;;;;;;;;;5061911;28;20497;-60
2023/10/12 14:01:33;;;;;;;2.65;2.15;;;;;;;;;;5061515;28;20508;-60
2023/10/12 14:04:15;;;;;;;2.33;2.00;;;;;;;;;;5059967;28;20537;-60
2023/10/12 14:06:44;;;;;;;2.00;1.90;;;;;;;;;;5060747;28;20071;-59
2023/10/12 14:09:15;;;;;;;3.13;2.17;;;;;;;;;;5062832;28;20072;-61
2023/10/12 14:11:47;;;;;;;3.05;2.20;;;;;;;;;;5062120;28;20129;-61
2023/10/12 14:14:17;;;;;;;4.97;2.20;;;;;;;;;;5059454;28;20468;-64
2023/10/12 14:16:45;;;;;;;4.20;1.80;;;;;;;;;;5063020;28;20052;-63
2023/10/12 14:19:16;;;;;;;2.42;2.08;;;;;;;;;;5060823;28;20045;-61
2023/10/12 14:21:46;;;;;;;2.67;1.80;;;;;;;;;;5062574;28;20056;-62
2023/10/12 14:24:17;;;;;;;3.95;2.17;;;;;;;;;;5058913;28;20153;-61
2023/10/12 14:26:46;;;;;;;2.05;1.85;;;;;;;;;;5062308;28;20056;-61
2023/10/12 14:29:18;;;;;;;2.30;1.70;;;;;;;;;;5059651;28;20060;-65
2023/10/12 14:31:47;;;;;;;3.17;1.90;;;;;;;;;;5061249;28;20439;-62
2023/10/12 14:34:16;;;;;;;7.95;2.47;;;;;;;;;;5061039;28;20409;-61
2023/10/12 14:36:45;;;;;;;3.78;1.80;;;;;;;;;;5063242;28;20060;-62
2023/10/12 14:39:22;;;;;;;4.50;1.80;;;;;;;;;;5056596;28;20055;-63
2023/10/12 14:41:51;;;;;;;1.90;1.80;;;;;;;;;;5057958;28;20286;-60
2023/10/12 14:44:22;;;;;;;2.40;2.10;;;;;;;;;;5056629;28;20051;-60
2023/10/12 14:46:54;;;;;;;2.83;2.17;;;;;;;;;;5059473;28;20048;-61
2023/10/12 14:49:23;;;;;;;2.65;1.73;;;;;;;;;;5062967;28;20579;-63
2023/10/12 14:51:53;;;;;;;2.95;2.05;;;;;;;;;;5060344;28;20045;-59
2023/10/12 14:54:22;;;;;;;3.45;2.22;;;;;;;;;;5058997;28;20055;-61
2023/10/12 14:56:50;;;;;;;3.78;2.25;;;;;;;;;;5057606;28;20071;-60
2023/10/12 14:59:21;;;;;;;3.50;2.40;;;;;;;;;;5060561;28;20074;-61
2023/10/12 15:01:51;;;;;;;2.10;2.00;;;;;;;;;;5061900;28;20158;-62
2023/10/12 15:04:20;;;;;;;5.70;2.33;;;;;;;;;;5058641;28;20060;-60
2023/10/12 15:06:51;;;;;;;3.72;2.45;;;;;;;;;;5058756;28;20044;-60
2023/10/12 15:09:26;;;;;;;3.40;2.38;;;;;;;;;;5059599;28;20531;-61
2023/10/12 15:11:54;;;;;;;2.40;2.25;;;;;;;;;;5060362;28;20055;-65
2023/10/12 15:14:24;;;;;;;3.60;2.22;;;;;;;;;;5055607;28;20060;-61
2023/10/12 15:16:53;;;;;;;2.67;2.30;;;;;;;;;;5061107;28;20106;-63
2023/10/12 15:19:21;;;;;;;2.47;2.25;;;;;;;;;;5058777;28;20055;-60
2023/10/12 15:21:50;;;;;;;3.47;2.40;;;;;;;;;;5061593;28;20052;-60
2023/10/12 15:24:19;;;;;;;2.45;2.25;;;;;;;;;;5059965;28;20056;-62
2023/10/12 15:26:47;;;;;;;2.25;2.10;;;;;;;;;;5055762;28;20041;-59
2023/10/12 15:29:17;;;;;;;2.78;2.33;;;;;;;;;;5054964;28;20063;-63
2023/10/12 15:31:47;;;;;;;2.90;2.60;;;;;;;;;;5054594;28;20052;-63
2023/10/12 15:34:16;;;;;;;2.70;2.15;;;;;;;;;;5059452;28;20044;-60
2023/10/12 15:36:44;;;;;;;2.30;2.20;;;;;;;;;;5061540;28;20098;-62
2023/10/12 15:39:16;;;;;;;2.50;2.30;;;;;;;;;;5058634;28;20044;-60
2023/10/12 15:41:45;;;;;;;2.63;2.25;;;;;;;;;;5058915;28;20045;-61
2023/10/12 15:44:13;;;;;;;3.47;2.33;;;;;;;;;;5061892;28;20056;-60
2023/10/12 15:46:42;;;;;;;3.40;2.55;;;;;;;;;;5058039;28;20041;-60
2023/10/12 15:49:12;;;;;;;4.57;2.60;;;;;;;;;;5060662;28;20054;-62
2023/10/12 15:51:41;;;;;;;3.42;2.38;;;;;;;;;;5056811;28;20130;-63
2023/10/12 15:54:12;;;;;;;7.10;3.13;;;;;;;;;;5055385;28;20064;-65
2023/10/12 15:56:40;;;;;;;3.45;2.75;;;;;;;;;;5055766;28;20053;-62
2023/10/12 15:59:09;;;;;;;2.75;2.55;;;;;;;;;;5058656;28;20275;-61
2023/10/12 16:01:38;;;;;;;2.38;2.20;;;;;;;;;;5056664;28;20067;-61